createdAt,value
2018-03-16T00:00:39.267Z,99.99
2018-03-16T00:01:39.295Z,99.99
2018-03-16T00:02:39.324Z,99.99
2018-03-16T00:03:39.352Z,99.99
2018-03-16T00:04:39.380Z,99.99
2018-03-16T00:05:39.408Z,99.99
2018-03-16T00:06:39.436Z,99.99
2018-03-16T00:07:39.465Z,99.99
2018-03-16T00:08:39.493Z,99.99
2018-03-16T00:09:39.522Z,99.99
2018-03-16T00:10:39.549Z,99.99
2018-03-16T00:11:39.577Z,99.99
2018-03-16T00:12:39.606Z,99.99
2018-03-16T00:13:39.635Z,99.99
2018-03-16T00:14:39.662Z,99.99
2018-03-16T00:15:39.690Z,99.99
2018-03-16T00:16:39.718Z,99.99
2018-03-16T00:17:39.747Z,99.99
2018-03-16T00:18:39.773Z,99.99
2018-03-16T00:19:39.802Z,99.99
2018-03-16T00:20:39.829Z,99.99
2018-03-16T00:21:39.858Z,99.99
2018-03-16T00:22:39.890Z,99.99
2018-03-16T00:23:39.914Z,99.99
2018-03-16T00:24:39.946Z,99.99
2018-03-16T00:25:39.974Z,99.99
2018-03-16T00:26:39.998Z,99.99
2018-03-16T00:27:40.026Z,99.99
2018-03-16T00:28:40.054Z,99.99
2018-03-16T00:29:40.081Z,99.99
2018-03-16T00:30:40.117Z,99.99
2018-03-16T00:31:40.137Z,99.99
2018-03-16T00:32:40.165Z,99.99
2018-03-16T00:33:40.193Z,99.99
2018-03-16T00:34:40.221Z,99.99
2018-03-16T00:35:40.254Z,99.99
2018-03-16T00:36:40.277Z,99.99
2018-03-16T00:37:40.306Z,99.99
2018-03-16T00:38:40.332Z,99.99
2018-03-16T00:39:40.360Z,99.99
2018-03-16T00:40:40.389Z,99.99
2018-03-16T00:41:40.417Z,99.99
2018-03-16T00:42:40.444Z,99.99
2018-03-16T00:43:40.472Z,99.99
2018-03-16T00:44:40.502Z,99.99
2018-03-16T00:45:40.528Z,99.99
2018-03-16T00:46:40.558Z,99.99
2018-03-16T00:47:40.583Z,99.99
2018-03-16T00:48:40.611Z,99.99
2018-03-16T00:49:40.640Z,99.99
2018-03-16T00:50:40.665Z,99.99
2018-03-16T00:51:40.693Z,99.99
2018-03-16T00:52:40.721Z,99.99
2018-03-16T00:53:40.750Z,99.99
2018-03-16T00:54:40.777Z,99.99
2018-03-16T00:55:40.806Z,99.99
2018-03-16T00:56:40.833Z,99.99
2018-03-16T00:57:40.861Z,99.99
2018-03-16T00:58:40.889Z,99.99
2018-03-16T00:59:40.917Z,99.99
2018-03-16T01:00:40.945Z,99.99
2018-03-16T01:01:40.973Z,99.99
2018-03-16T01:02:40.999Z,99.99
2018-03-16T01:03:41.031Z,99.99
2018-03-16T01:04:41.056Z,99.99
2018-03-16T01:05:41.087Z,99.99
2018-03-16T01:06:41.112Z,99.99
2018-03-16T01:07:41.140Z,99.99
2018-03-16T01:08:41.168Z,99.99
2018-03-16T01:09:41.195Z,99.99
2018-03-16T01:10:41.223Z,99.99
2018-03-16T01:11:41.251Z,99.99
2018-03-16T01:12:41.280Z,99.99
2018-03-16T01:13:41.307Z,99.99
2018-03-16T01:14:41.337Z,99.99
2018-03-16T01:15:41.362Z,99.99
2018-03-16T01:16:41.390Z,99.99
2018-03-16T01:17:41.419Z,99.99
2018-03-16T01:18:41.445Z,99.99
2018-03-16T01:19:41.473Z,99.99
2018-03-16T01:20:41.501Z,99.99
2018-03-16T01:21:41.530Z,99.99
2018-03-16T01:22:41.557Z,99.99
2018-03-16T01:23:41.585Z,99.99
2018-03-16T01:24:41.613Z,99.99
2018-03-16T01:25:41.641Z,99.99
2018-03-16T01:26:41.668Z,99.99
2018-03-16T01:27:41.696Z,99.99
2018-03-16T01:28:41.723Z,99.99
2018-03-16T01:29:41.752Z,99.99
2018-03-16T01:30:41.778Z,99.99
2018-03-16T01:31:41.805Z,99.99
2018-03-16T01:32:41.833Z,99.99
2018-03-16T01:33:41.861Z,99.99
2018-03-16T01:34:41.889Z,99.99
2018-03-16T01:35:41.917Z,99.99
2018-03-16T01:36:41.945Z,99.99
2018-03-16T01:37:41.971Z,99.99
2018-03-16T01:38:42.000Z,99.99
2018-03-16T01:39:42.028Z,99.99
2018-03-16T01:40:42.055Z,99.99
2018-03-16T01:41:42.084Z,99.99
2018-03-16T01:42:42.111Z,99.99
2018-03-16T01:43:42.138Z,99.99
2018-03-16T01:44:42.165Z,99.99
2018-03-16T01:45:42.193Z,99.99
2018-03-16T01:46:42.224Z,99.99
2018-03-16T01:47:42.252Z,99.99
2018-03-16T01:48:42.276Z,99.99
2018-03-16T01:49:42.304Z,99.99
2018-03-16T01:50:42.330Z,99.99
2018-03-16T01:51:42.359Z,99.99
2018-03-16T01:52:42.386Z,99.99
2018-03-16T01:53:42.414Z,99.99
2018-03-16T01:54:42.446Z,99.99
2018-03-16T01:55:42.472Z,99.99
2018-03-16T01:56:42.496Z,99.99
2018-03-16T01:57:42.524Z,99.99
2018-03-16T01:58:42.552Z,99.99
2018-03-16T01:59:42.579Z,99.99
2018-03-16T02:00:42.607Z,99.99
2018-03-16T02:01:42.634Z,99.99
2018-03-16T02:02:42.660Z,99.99
2018-03-16T02:03:42.689Z,99.99
2018-03-16T02:04:42.716Z,99.99
2018-03-16T02:05:42.744Z,99.99
2018-03-16T02:06:42.770Z,99.99
2018-03-16T02:07:42.798Z,99.99
2018-03-16T02:08:42.826Z,99.99
2018-03-16T02:09:42.853Z,99.99
2018-03-16T02:10:42.881Z,99.99
2018-03-16T02:11:42.909Z,99.99
2018-03-16T02:12:42.937Z,99.99
2018-03-16T02:13:42.964Z,99.99
2018-03-16T02:14:42.992Z,99.99
2018-03-16T02:15:43.021Z,99.99
2018-03-16T02:16:43.046Z,99.99
2018-03-16T02:17:43.074Z,99.99
2018-03-16T02:18:43.103Z,99.99
2018-03-16T02:19:43.129Z,99.99
2018-03-16T02:20:43.159Z,99.99
2018-03-16T02:21:43.183Z,99.99
2018-03-16T02:22:43.210Z,99.99
2018-03-16T02:23:43.238Z,99.99
2018-03-16T02:24:43.266Z,99.99
2018-03-16T02:25:43.294Z,99.99
2018-03-16T02:26:43.320Z,99.99
2018-03-16T02:27:43.349Z,99.99
2018-03-16T02:28:43.376Z,99.99
2018-03-16T02:29:43.404Z,99.99
2018-03-16T02:30:43.430Z,99.99
2018-03-16T02:31:43.460Z,99.99
2018-03-16T02:32:43.486Z,99.99
2018-03-16T02:33:43.520Z,99.99
2018-03-16T02:34:43.544Z,99.99
2018-03-16T02:35:43.569Z,99.99
2018-03-16T02:36:43.600Z,99.99
2018-03-16T02:37:43.624Z,99.99
2018-03-16T02:38:43.651Z,99.99
2018-03-16T02:39:43.679Z,99.99
2018-03-16T02:40:43.709Z,99.99
2018-03-16T02:41:43.735Z,99.99
2018-03-16T02:42:43.765Z,99.99
2018-03-16T02:43:43.788Z,99.99
2018-03-16T02:44:43.817Z,99.99
2018-03-16T02:45:43.844Z,99.99
2018-03-16T02:46:43.870Z,99.99
2018-03-16T02:47:43.903Z,99.99
2018-03-16T02:48:43.926Z,99.99
2018-03-16T02:49:43.965Z,99.99
2018-03-16T02:50:43.981Z,99.99
2018-03-16T02:51:44.010Z,99.99
2018-03-16T02:52:44.039Z,99.99
2018-03-16T02:53:44.065Z,99.99
2018-03-16T02:54:44.091Z,99.99
2018-03-16T02:55:44.118Z,99.99
2018-03-16T02:56:44.146Z,99.99
2018-03-16T02:57:44.175Z,99.99
2018-03-16T02:58:44.201Z,99.99
2018-03-16T02:59:44.229Z,99.99
2018-03-16T03:00:44.257Z,99.99
2018-03-16T03:01:44.291Z,99.99
2018-03-16T03:02:44.312Z,99.99
2018-03-16T03:03:44.339Z,99.99
2018-03-16T03:04:44.367Z,99.99
2018-03-16T03:05:44.396Z,99.99
2018-03-16T03:06:44.422Z,99.99
2018-03-16T03:07:44.449Z,99.99
2018-03-16T03:08:44.476Z,99.99
2018-03-16T03:09:44.505Z,99.99
2018-03-16T03:10:44.530Z,99.99
2018-03-16T03:11:44.559Z,99.99
2018-03-16T03:12:44.585Z,99.99
2018-03-16T03:13:44.619Z,99.99
2018-03-16T03:14:44.641Z,99.99
2018-03-16T03:15:44.668Z,99.99
2018-03-16T03:16:44.697Z,99.99
2018-03-16T03:17:44.724Z,99.99
2018-03-16T03:18:44.753Z,99.99
2018-03-16T03:19:44.779Z,99.99
2018-03-16T03:20:44.810Z,99.99
2018-03-16T03:21:44.834Z,99.99
2018-03-16T03:22:44.860Z,99.99
2018-03-16T03:23:44.887Z,99.99
2018-03-16T03:24:44.917Z,99.99
2018-03-16T03:25:44.943Z,99.99
2018-03-16T03:26:44.969Z,99.99
2018-03-16T03:27:44.998Z,99.99
2018-03-16T03:28:45.030Z,99.99
2018-03-16T03:29:45.055Z,99.99
2018-03-16T03:30:45.080Z,99.99
2018-03-16T03:31:45.110Z,99.99
2018-03-16T03:32:45.137Z,99.99
2018-03-16T03:33:45.162Z,99.99
2018-03-16T03:34:45.190Z,99.99
2018-03-16T03:35:45.218Z,99.99
2018-03-16T03:36:45.246Z,99.99
2018-03-16T03:37:45.276Z,99.99
2018-03-16T03:38:45.301Z,99.99
2018-03-16T03:39:45.328Z,99.99
2018-03-16T03:40:45.357Z,99.99
2018-03-16T03:41:45.384Z,99.99
2018-03-16T03:42:45.410Z,99.99
2018-03-16T03:43:45.441Z,99.99
2018-03-16T03:44:45.466Z,99.99
2018-03-16T03:45:45.493Z,99.99
2018-03-16T03:46:45.521Z,99.99
2018-03-16T03:47:45.549Z,99.99
2018-03-16T03:48:45.575Z,99.99
2018-03-16T03:49:45.608Z,99.99
2018-03-16T03:50:45.630Z,99.99
2018-03-16T03:51:45.658Z,99.99
2018-03-16T03:52:45.687Z,99.99
2018-03-16T03:53:45.715Z,99.99
2018-03-16T03:54:45.742Z,99.99
2018-03-16T03:55:45.768Z,99.99
2018-03-16T03:56:45.797Z,99.99
2018-03-16T03:57:45.824Z,99.99
2018-03-16T03:58:45.852Z,99.99
2018-03-16T03:59:45.879Z,99.99
2018-03-16T04:00:45.906Z,99.99
2018-03-16T04:01:45.935Z,99.99
2018-03-16T04:02:45.962Z,99.99
2018-03-16T04:03:45.989Z,99.99
2018-03-16T04:04:46.018Z,99.99
2018-03-16T04:05:46.045Z,99.99
2018-03-16T04:06:46.073Z,99.99
2018-03-16T04:07:46.101Z,99.99
2018-03-16T04:08:46.129Z,99.99
2018-03-16T04:09:46.157Z,99.99
2018-03-16T04:10:46.184Z,99.99
2018-03-16T04:11:46.213Z,99.99
2018-03-16T04:12:46.243Z,99.99
2018-03-16T04:13:46.268Z,99.99
2018-03-16T04:14:46.295Z,99.99
2018-03-16T04:15:46.324Z,99.99
2018-03-16T04:16:46.350Z,99.99
2018-03-16T04:17:46.379Z,99.99
2018-03-16T04:18:46.407Z,99.99
2018-03-16T04:19:46.434Z,99.99
2018-03-16T04:20:46.463Z,99.99
2018-03-16T04:21:46.489Z,99.99
2018-03-16T04:22:46.518Z,99.99
2018-03-16T04:23:46.546Z,99.99
2018-03-16T04:24:46.578Z,99.99
2018-03-16T04:25:46.602Z,99.99
2018-03-16T04:26:46.629Z,99.99
2018-03-16T04:27:46.662Z,99.99
2018-03-16T04:28:46.687Z,99.99
2018-03-16T04:29:46.714Z,99.99
2018-03-16T04:30:46.742Z,99.99
2018-03-16T04:31:46.771Z,99.99
2018-03-16T04:32:46.798Z,99.99
2018-03-16T04:33:46.827Z,99.99
2018-03-16T04:34:46.854Z,99.99
2018-03-16T04:35:46.881Z,99.99
2018-03-16T04:36:46.911Z,99.99
2018-03-16T04:37:46.939Z,99.99
2018-03-16T04:38:46.967Z,99.99
2018-03-16T04:39:46.995Z,99.99
2018-03-16T04:40:47.022Z,99.99
2018-03-16T04:41:47.051Z,99.99
2018-03-16T04:42:47.080Z,99.99
2018-03-16T04:43:47.107Z,99.99
2018-03-16T04:44:47.135Z,99.99
2018-03-16T04:45:47.165Z,99.99
2018-03-16T04:46:47.191Z,99.99
2018-03-16T04:47:47.220Z,99.99
2018-03-16T04:48:47.249Z,99.99
2018-03-16T04:49:47.277Z,99.99
2018-03-16T04:50:47.303Z,99.99
2018-03-16T04:51:47.333Z,99.99
2018-03-16T04:52:47.363Z,99.99
2018-03-16T04:53:47.389Z,99.99
2018-03-16T04:54:47.416Z,99.99
2018-03-16T04:55:47.444Z,99.99
2018-03-16T04:56:47.475Z,99.99
2018-03-16T04:57:47.502Z,99.99
2018-03-16T04:58:47.529Z,99.99
2018-03-16T04:59:47.561Z,99.99
2018-03-16T05:00:47.586Z,99.99
2018-03-16T05:01:47.616Z,99.99
2018-03-16T05:02:47.644Z,99.99
2018-03-16T05:03:47.674Z,99.99
2018-03-16T05:04:47.702Z,99.99
2018-03-16T05:05:47.729Z,99.99
2018-03-16T05:06:47.757Z,99.99
2018-03-16T05:07:47.786Z,99.99
2018-03-16T05:08:47.813Z,99.99
2018-03-16T05:09:47.842Z,99.99
2018-03-16T05:10:47.871Z,99.99
2018-03-16T05:11:47.899Z,99.99
2018-03-16T05:12:47.928Z,99.99
2018-03-16T05:13:47.957Z,99.99
2018-03-16T05:14:47.988Z,99.99
2018-03-16T05:15:48.017Z,99.99
2018-03-16T05:16:48.042Z,99.99
2018-03-16T05:17:48.071Z,99.99
2018-03-16T05:18:48.102Z,99.99
2018-03-16T05:19:48.127Z,99.99
2018-03-16T05:20:48.157Z,99.99
2018-03-16T05:21:48.184Z,99.99
2018-03-16T05:22:48.217Z,99.99
2018-03-16T05:23:48.241Z,99.99
2018-03-16T05:24:48.269Z,99.99
2018-03-16T05:25:48.298Z,99.99
2018-03-16T05:26:48.327Z,99.99
2018-03-16T05:27:48.355Z,99.99
2018-03-16T05:28:48.384Z,99.99
2018-03-16T05:29:48.412Z,99.99
2018-03-16T05:30:48.441Z,99.99
2018-03-16T05:31:48.470Z,99.99
2018-03-16T05:32:48.497Z,99.99
2018-03-16T05:33:48.526Z,99.99
2018-03-16T05:34:48.556Z,99.99
2018-03-16T05:35:48.583Z,99.99
2018-03-16T05:36:48.612Z,99.99
2018-03-16T05:37:48.642Z,99.99
2018-03-16T05:38:48.670Z,99.99
2018-03-16T05:39:48.698Z,99.99
2018-03-16T05:40:48.726Z,99.99
2018-03-16T05:41:48.757Z,99.99
2018-03-16T05:42:48.784Z,99.99
2018-03-16T05:43:48.813Z,99.99
2018-03-16T05:44:48.843Z,99.99
2018-03-16T05:45:48.871Z,99.99
2018-03-16T05:46:48.900Z,99.99
2018-03-16T05:47:48.929Z,99.99
2018-03-16T05:48:48.958Z,99.99
2018-03-16T05:49:48.992Z,99.99
2018-03-16T05:50:49.014Z,99.99
2018-03-16T05:51:49.044Z,99.99
2018-03-16T05:52:49.076Z,99.99
2018-03-16T05:53:49.102Z,99.99
2018-03-16T05:54:49.130Z,99.99
2018-03-16T05:55:49.159Z,99.99
2018-03-16T05:56:49.190Z,99.99
2018-03-16T05:57:49.218Z,99.99
2018-03-16T05:58:49.246Z,99.99
2018-03-16T05:59:49.275Z,99.99
2018-03-16T06:00:49.378Z,99.99
2018-03-16T06:01:49.334Z,99.99
2018-03-16T06:02:49.363Z,99.99
2018-03-16T06:03:49.392Z,99.99
2018-03-16T06:04:49.420Z,99.99
2018-03-16T06:05:49.450Z,99.99
2018-03-16T06:06:49.480Z,99.99
2018-03-16T06:07:49.508Z,99.99
2018-03-16T06:08:49.538Z,99.99
2018-03-16T06:09:49.566Z,99.99
2018-03-16T06:10:49.594Z,99.99
2018-03-16T06:11:49.623Z,99.99
2018-03-16T06:12:49.653Z,99.99
2018-03-16T06:13:49.682Z,99.99
2018-03-16T06:14:49.712Z,99.99
2018-03-16T06:15:49.740Z,99.99
2018-03-16T06:16:49.770Z,99.99
2018-03-16T06:17:49.798Z,99.99
2018-03-16T06:18:49.827Z,99.99
2018-03-16T06:19:49.856Z,99.99
2018-03-16T06:20:49.885Z,99.99
2018-03-16T06:21:49.915Z,99.99
2018-03-16T06:22:49.944Z,99.99
2018-03-16T06:23:49.973Z,99.99
2018-03-16T06:24:50.004Z,99.99
2018-03-16T06:25:50.035Z,99.99
2018-03-16T06:26:50.064Z,99.99
2018-03-16T06:27:50.094Z,99.99
2018-03-16T06:28:50.124Z,99.99
2018-03-16T06:29:50.149Z,99.99
2018-03-16T06:30:50.178Z,99.99
2018-03-16T06:31:50.209Z,99.99
2018-03-16T06:32:50.238Z,99.99
2018-03-16T06:33:50.268Z,99.99
2018-03-16T06:34:50.296Z,99.99
2018-03-16T06:35:50.326Z,99.99
2018-03-16T06:36:50.356Z,99.99
2018-03-16T06:37:50.386Z,99.99
2018-03-16T06:38:50.415Z,99.99
2018-03-16T06:39:50.444Z,99.99
2018-03-16T06:40:50.474Z,99.99
2018-03-16T06:41:50.503Z,99.99
2018-03-16T06:42:50.538Z,99.99
2018-03-16T06:43:50.563Z,99.99
2018-03-16T06:44:50.825Z,99.99
2018-03-16T06:45:50.621Z,99.99
2018-03-16T06:46:50.655Z,99.99
2018-03-16T06:47:50.681Z,99.99
2018-03-16T06:48:50.712Z,99.99
2018-03-16T06:49:50.742Z,99.99
2018-03-16T06:50:50.769Z,99.99
2018-03-16T06:51:50.867Z,99.99
2018-03-16T06:52:50.859Z,99.99
2018-03-16T06:53:50.887Z,99.99
2018-03-16T06:54:50.912Z,99.99
2018-03-16T06:55:50.944Z,99.99
2018-03-16T06:56:50.983Z,99.99
2018-03-16T06:57:51.016Z,99.99
2018-03-16T06:58:51.038Z,99.99
2018-03-16T06:59:51.069Z,99.99
2018-03-16T07:00:51.089Z,99.99
2018-03-16T07:01:51.130Z,99.99
2018-03-16T07:02:51.155Z,99.99
2018-03-16T07:03:51.177Z,99.99
2018-03-16T07:04:51.187Z,99.99
2018-03-16T07:05:51.218Z,99.99
2018-03-16T07:06:51.249Z,99.99
2018-03-16T07:07:51.279Z,99.99
2018-03-16T07:08:51.309Z,99.99
2018-03-16T07:09:51.353Z,99.99
2018-03-16T07:10:51.373Z,99.99
2018-03-16T07:11:51.397Z,99.99
2018-03-16T07:12:51.428Z,99.99
2018-03-16T07:13:51.458Z,99.99
2018-03-16T07:14:51.487Z,99.99
2018-03-16T07:15:51.518Z,99.99
2018-03-16T07:16:51.548Z,99.99
2018-03-16T07:17:51.578Z,99.99
2018-03-16T07:18:51.607Z,99.99
2018-03-16T07:19:51.638Z,99.99
2018-03-16T07:20:51.668Z,99.99
2018-03-16T07:21:51.699Z,99.99
2018-03-16T07:22:51.727Z,99.99
2018-03-16T07:23:51.757Z,99.99
2018-03-16T07:24:51.788Z,99.99
2018-03-16T07:25:51.818Z,99.99
2018-03-16T07:26:51.848Z,99.99
2018-03-16T07:27:51.878Z,99.99
2018-03-16T07:28:51.909Z,99.99
2018-03-16T07:29:51.937Z,99.99
2018-03-16T07:30:51.981Z,99.99
2018-03-16T07:31:51.999Z,99.99
2018-03-16T07:32:52.085Z,99.99
2018-03-16T07:33:52.059Z,99.99
2018-03-16T07:34:52.088Z,99.99
2018-03-16T07:35:52.119Z,99.99
2018-03-16T07:36:52.149Z,99.99
2018-03-16T07:37:52.179Z,99.99
2018-03-16T07:38:52.209Z,99.99
2018-03-16T07:39:52.239Z,99.99
2018-03-16T07:40:52.271Z,99.99
2018-03-16T07:41:52.301Z,99.99
2018-03-16T07:42:52.369Z,99.99
2018-03-16T07:43:52.361Z,99.99
2018-03-16T07:44:52.391Z,99.99
2018-03-16T07:45:52.422Z,99.99
2018-03-16T07:46:52.452Z,99.99
2018-03-16T07:47:52.485Z,99.99
2018-03-16T07:48:52.515Z,99.99
2018-03-16T07:49:52.546Z,99.99
2018-03-16T07:50:52.577Z,99.99
2018-03-16T07:51:52.606Z,99.99
2018-03-16T07:52:52.638Z,99.99
2018-03-16T07:53:52.670Z,99.99
2018-03-16T07:54:52.700Z,99.99
2018-03-16T07:55:52.731Z,99.99
2018-03-16T07:56:52.762Z,99.99
2018-03-16T07:57:52.794Z,99.99
2018-03-16T07:58:52.826Z,99.99
2018-03-16T07:59:52.858Z,99.99
2018-03-16T08:00:52.888Z,99.99
2018-03-16T08:01:52.925Z,99.99
2018-03-16T08:02:52.951Z,99.99
2018-03-16T08:03:52.984Z,99.99
2018-03-16T08:04:53.016Z,99.99
2018-03-16T08:05:53.047Z,99.99
2018-03-16T08:06:53.080Z,99.99
2018-03-16T08:07:53.111Z,99.99
2018-03-16T08:08:53.143Z,99.99
2018-03-16T08:09:53.176Z,99.99
2018-03-16T08:10:53.208Z,99.99
2018-03-16T08:11:53.269Z,99.99
2018-03-16T08:12:53.273Z,99.99
2018-03-16T08:13:53.307Z,99.99
2018-03-16T08:14:53.337Z,99.99
2018-03-16T08:15:53.369Z,99.99
2018-03-16T08:16:53.402Z,99.99
2018-03-16T08:17:53.436Z,99.99
2018-03-16T08:18:53.470Z,99.99
2018-03-16T08:19:53.501Z,99.99
2018-03-16T08:20:53.534Z,99.99
2018-03-16T08:21:53.565Z,99.99
2018-03-16T08:22:53.598Z,99.99
2018-03-16T08:23:53.631Z,99.13
2018-03-16T08:24:53.663Z,97.85
2018-03-16T08:25:53.697Z,98.42
2018-03-16T08:26:53.730Z,97.85
2018-03-16T08:27:53.764Z,97.94
2018-03-16T08:28:53.796Z,97.66
2018-03-16T08:29:53.829Z,97.61
2018-03-16T08:30:53.862Z,95.32
2018-03-16T08:31:53.896Z,95.12
2018-03-16T08:32:53.929Z,94.74
2018-03-16T08:33:53.963Z,94.93
2018-03-16T08:34:53.996Z,93.07
2018-03-16T08:35:54.031Z,93.46
2018-03-16T08:36:54.065Z,94.03
2018-03-16T08:37:54.098Z,94.51
2018-03-16T08:38:54.131Z,94.31
2018-03-16T08:39:54.170Z,93.55
2018-03-16T08:40:54.231Z,94.56
2018-03-16T08:41:54.235Z,94.07
2018-03-16T08:42:54.268Z,94.74
2018-03-16T08:43:54.301Z,97.37
2018-03-16T08:44:54.336Z,96.70
2018-03-16T08:45:54.377Z,97.27
2018-03-16T08:46:54.403Z,99.99
2018-03-16T08:47:54.437Z,99.99
2018-03-16T08:48:54.472Z,99.99
2018-03-16T08:49:54.506Z,99.99
2018-03-16T08:50:54.538Z,99.99
2018-03-16T08:51:54.574Z,99.99
2018-03-16T08:52:54.606Z,99.08
2018-03-16T08:53:54.640Z,98.03
2018-03-16T08:54:54.673Z,98.51
2018-03-16T08:55:54.708Z,97.46
2018-03-16T08:56:54.741Z,97.56
2018-03-16T08:57:54.775Z,98.47
2018-03-16T08:58:54.812Z,98.66
2018-03-16T08:59:54.843Z,97.61
2018-03-16T09:00:54.875Z,97.51
2018-03-16T09:01:54.911Z,96.46
2018-03-16T09:02:54.970Z,97.32
2018-03-16T09:03:54.978Z,96.46
2018-03-16T09:04:55.012Z,97.03
2018-03-16T09:05:55.046Z,95.22
2018-03-16T09:06:55.078Z,95.98
2018-03-16T09:07:55.114Z,95.22
2018-03-16T09:08:55.146Z,94.65
2018-03-16T09:09:55.181Z,95.46
2018-03-16T09:10:55.214Z,95.17
2018-03-16T09:11:55.248Z,94.70
2018-03-16T09:12:55.283Z,92.26
2018-03-16T09:13:55.316Z,91.83
2018-03-16T09:14:55.351Z,89.96
2018-03-16T09:15:55.386Z,86.66
2018-03-16T09:16:55.419Z,86.80
2018-03-16T09:17:55.453Z,88.53
2018-03-16T09:18:55.486Z,88.77
2018-03-16T09:19:55.522Z,90.20
2018-03-16T09:20:55.556Z,90.01
2018-03-16T09:21:55.591Z,90.68
2018-03-16T09:22:55.629Z,91.69
2018-03-16T09:23:55.659Z,91.88
2018-03-16T09:24:55.694Z,91.88
2018-03-16T09:25:55.731Z,91.02
2018-03-16T09:26:55.764Z,92.88
2018-03-16T09:27:55.799Z,93.36
2018-03-16T09:28:55.833Z,94.12
2018-03-16T09:29:55.868Z,93.84
2018-03-16T09:30:55.901Z,95.08
2018-03-16T09:31:55.937Z,96.84
2018-03-16T09:32:55.973Z,96.32
2018-03-16T09:33:56.005Z,95.27
2018-03-16T09:34:56.038Z,93.46
2018-03-16T09:35:56.074Z,92.02
2018-03-16T09:36:56.109Z,91.64
2018-03-16T09:37:56.147Z,92.16
2018-03-16T09:38:56.177Z,91.30
2018-03-16T09:39:56.211Z,92.79
2018-03-16T09:40:56.246Z,92.97
2018-03-16T09:41:56.282Z,93.07
2018-03-16T09:42:56.314Z,93.46
2018-03-16T09:43:56.350Z,94.51
2018-03-16T09:44:56.385Z,95.32
2018-03-16T09:45:56.418Z,94.41
2018-03-16T09:46:56.453Z,94.79
2018-03-16T09:47:56.490Z,94.51
2018-03-16T09:48:56.521Z,94.31
2018-03-16T09:49:56.556Z,94.03
2018-03-16T09:50:56.589Z,94.22
2018-03-16T09:51:56.624Z,94.03
2018-03-16T09:52:56.663Z,94.51
2018-03-16T09:53:56.695Z,94.79
2018-03-16T09:54:56.726Z,93.26
2018-03-16T09:55:56.761Z,92.12
2018-03-16T09:56:56.841Z,92.41
2018-03-16T09:57:56.832Z,92.12
2018-03-16T09:58:56.864Z,92.21
2018-03-16T09:59:56.899Z,92.26
2018-03-16T10:00:56.933Z,92.83
2018-03-16T10:01:56.967Z,92.11
2018-03-16T10:02:57.001Z,90.68
2018-03-16T10:03:57.036Z,90.11
2018-03-16T10:04:57.070Z,88.87
2018-03-16T10:05:57.105Z,88.05
2018-03-16T10:06:57.140Z,86.52
2018-03-16T10:07:57.176Z,86.43
2018-03-16T10:08:57.213Z,86.43
2018-03-16T10:09:57.247Z,85.75
2018-03-16T10:10:57.281Z,86.18
2018-03-16T10:11:57.316Z,85.75
2018-03-16T10:12:57.362Z,85.66
2018-03-16T10:13:57.387Z,85.09
2018-03-16T10:14:57.421Z,84.84
2018-03-16T10:15:57.456Z,84.94
2018-03-16T10:16:57.494Z,84.94
2018-03-16T10:17:57.528Z,84.17
2018-03-16T10:18:57.563Z,83.31
2018-03-16T10:19:57.600Z,82.49
2018-03-16T10:20:57.634Z,81.54
2018-03-16T10:21:57.671Z,80.33
2018-03-16T10:22:57.707Z,79.95
2018-03-16T10:23:57.743Z,79.51
2018-03-16T10:24:57.778Z,78.55
2018-03-16T10:25:57.815Z,78.36
2018-03-16T10:26:57.850Z,76.39
2018-03-16T10:27:57.888Z,76.44
2018-03-16T10:28:57.925Z,76.44
2018-03-16T10:29:57.962Z,75.62
2018-03-16T10:30:57.997Z,73.30
2018-03-16T10:31:58.036Z,70.68
2018-03-16T10:32:58.073Z,68.83
2018-03-16T10:33:58.110Z,62.41
2018-03-16T10:34:58.148Z,55.83
2018-03-16T10:35:58.186Z,52.63
2018-03-16T10:36:58.225Z,50.57
2018-03-16T10:37:58.265Z,50.28
2018-03-16T10:38:58.304Z,52.33
2018-03-16T10:39:58.344Z,52.81
2018-03-16T10:40:58.385Z,52.53
2018-03-16T10:41:58.426Z,48.52
2018-03-16T10:42:58.467Z,45.51
2018-03-16T10:43:58.509Z,48.08
2018-03-16T10:44:58.551Z,49.95
2018-03-16T10:45:58.594Z,53.51
2018-03-16T10:46:58.636Z,51.13
2018-03-16T10:47:58.680Z,49.73
2018-03-16T10:48:58.732Z,47.28
2018-03-16T10:49:58.764Z,51.56
2018-03-16T10:50:58.807Z,52.69
2018-03-16T10:51:58.850Z,53.31
2018-03-16T10:52:58.895Z,53.70
2018-03-16T10:53:58.938Z,54.32
2018-03-16T10:54:58.982Z,57.58
2018-03-16T10:55:59.024Z,61.23
2018-03-16T10:56:59.075Z,62.00
2018-03-16T10:57:59.113Z,62.61
2018-03-16T10:58:59.154Z,59.91
2018-03-16T10:59:59.197Z,56.92
2018-03-16T11:00:59.240Z,59.15
2018-03-16T11:01:59.283Z,62.16
2018-03-16T11:02:59.326Z,66.77
2018-03-16T11:03:59.368Z,69.13
2018-03-16T11:04:59.412Z,70.15
2018-03-16T11:05:59.454Z,72.71
2018-03-16T11:06:59.498Z,75.26
2018-03-16T11:07:59.536Z,74.87
2018-03-16T11:08:59.578Z,74.84
2018-03-16T11:09:59.621Z,76.04
2018-03-16T11:10:59.660Z,78.43
2018-03-16T11:11:59.701Z,80.25
2018-03-16T11:12:59.743Z,80.73
2018-03-16T11:13:59.782Z,79.14
2018-03-16T11:14:59.825Z,79.14
2018-03-16T11:15:59.862Z,76.98
2018-03-16T11:16:59.900Z,76.50
2018-03-16T11:17:59.942Z,76.15
2018-03-16T11:18:59.979Z,74.89
2018-03-16T11:20:00.020Z,71.57
2018-03-16T11:21:00.059Z,66.67
2018-03-16T11:22:00.098Z,65.81
2018-03-16T11:23:00.140Z,66.71
2018-03-16T11:24:00.176Z,63.22
2018-03-16T11:25:00.217Z,59.84
2018-03-16T11:26:00.256Z,59.24
2018-03-16T11:27:00.296Z,59.92
2018-03-16T11:28:00.336Z,59.63
2018-03-16T11:29:00.377Z,59.01
2018-03-16T11:30:00.418Z,56.60
2018-03-16T11:31:00.458Z,57.18
2018-03-16T11:32:00.499Z,57.28
2018-03-16T11:33:00.539Z,58.44
2018-03-16T11:34:00.582Z,57.09
2018-03-16T11:35:00.621Z,56.60
2018-03-16T11:36:00.664Z,57.90
2018-03-16T11:37:00.706Z,58.31
2018-03-16T11:38:00.747Z,56.74
2018-03-16T11:39:00.789Z,56.07
2018-03-16T11:40:00.831Z,58.58
2018-03-16T11:41:00.875Z,59.92
2018-03-16T11:42:00.916Z,59.89
2018-03-16T11:43:00.955Z,60.79
2018-03-16T11:44:01.025Z,62.20
2018-03-16T11:45:01.041Z,61.88
2018-03-16T11:46:01.085Z,65.78
2018-03-16T11:47:01.122Z,67.72
2018-03-16T11:48:01.165Z,66.58
2018-03-16T11:49:01.205Z,66.71
2018-03-16T11:50:01.248Z,66.03
2018-03-16T11:51:01.287Z,65.55
2018-03-16T11:52:01.333Z,65.46
2018-03-16T11:53:01.372Z,65.62
2018-03-16T11:54:01.408Z,65.81
2018-03-16T11:55:01.449Z,65.81
2018-03-16T11:56:01.489Z,66.58
2018-03-16T11:57:01.530Z,66.80
2018-03-16T11:58:01.570Z,65.75
2018-03-16T11:59:01.608Z,64.92
2018-03-16T12:00:01.657Z,63.19
2018-03-16T12:01:01.689Z,64.22
2018-03-16T12:02:01.729Z,64.40
2018-03-16T12:03:01.771Z,64.02
2018-03-16T12:04:01.808Z,61.62
2018-03-16T12:05:01.850Z,60.25
2018-03-16T12:06:01.889Z,60.15
2018-03-16T12:07:01.927Z,60.44
2018-03-16T12:08:01.967Z,61.53
2018-03-16T12:09:02.006Z,61.82
2018-03-16T12:10:02.047Z,62.13
2018-03-16T12:11:02.088Z,63.86
2018-03-16T12:12:02.126Z,63.64
2018-03-16T12:13:02.165Z,63.64
2018-03-16T12:14:02.204Z,64.05
2018-03-16T12:15:02.246Z,62.81
2018-03-16T12:16:02.290Z,62.13
2018-03-16T12:17:02.345Z,62.42
2018-03-16T12:18:02.362Z,62.39
2018-03-16T12:19:02.401Z,61.91
2018-03-16T12:20:02.441Z,61.21
2018-03-16T12:21:02.480Z,57.65
2018-03-16T12:22:02.519Z,54.80
2018-03-16T12:23:02.561Z,48.90
2018-03-16T12:24:02.598Z,41.78
2018-03-16T12:25:02.638Z,37.32
2018-03-16T12:26:02.680Z,34.86
2018-03-16T12:27:02.720Z,32.16
2018-03-16T12:28:02.763Z,29.64
2018-03-16T12:29:02.806Z,28.52
2018-03-16T12:30:02.849Z,26.95
2018-03-16T12:31:02.896Z,28.03
2018-03-16T12:32:02.938Z,29.53
2018-03-16T12:33:02.983Z,32.00
2018-03-16T12:34:03.030Z,33.01
2018-03-16T12:35:03.072Z,32.17
2018-03-16T12:36:03.120Z,31.53
2018-03-16T12:37:03.167Z,29.43
2018-03-16T12:38:03.215Z,28.14
2018-03-16T12:39:03.259Z,30.24
2018-03-16T12:40:03.313Z,32.32
2018-03-16T12:41:03.358Z,35.17
2018-03-16T12:42:03.404Z,36.87
2018-03-16T12:43:03.450Z,32.26
2018-03-16T12:44:03.506Z,32.40
2018-03-16T12:45:03.547Z,30.08
2018-03-16T12:46:03.595Z,29.64
2018-03-16T12:47:03.642Z,29.44
2018-03-16T12:48:03.691Z,28.39
2018-03-16T12:49:03.741Z,28.85
2018-03-16T12:50:03.790Z,30.35
2018-03-16T12:51:03.838Z,28.45
2018-03-16T12:52:03.887Z,29.43
2018-03-16T12:53:03.938Z,31.89